Terminal Aerodrome Forecast
Issued by NWS Quad Cities IA IL

Home | Current Version | Previous Version | Text Only | Print | Product List | Glossary On
Versions: 1 2 3 4 5 6 7 8 9 10 11 12 13 14 15 16 17
415
FTUS43 KDVN 171439 AAB
TAFDBQ
TAF AMD
KDBQ 171439Z 1715/1812 29004KT 3/4SM BR OVC002
      TEMPO 1715/1719 2SM BR OVC003
     FM171900 29006KT 4SM BR OVC005
     FM180100 28007KT 5SM BR BKN012=

USA.gov is the U.S. government's official web portal to all federal, state and local government web resources and services.